»·PEaware :: ACA569 KSFO-CYVR

ACA569 :: KSFO-CYVR

FLIGHT INFORMATION

Flight Status: Arrived
Operator:
Air Canada
More flights by this operator :: More flights under this callsign
Pilot: Jamyson D. (13674)
Aircraft: AIRBUS A320
(A320)
More flights by this aircraft type
Origin: KSFO San Francisco Intl
United States
Destination: CYVR Vancouver Intl
Canada
More flights between these airports :: More routes between these airports
Route: +TRUKN2 DEDHD RBL 4407N12213W PAE GRIZZ6
File this flight plan on PilotEdge
Remarks:
Altitude:
(Current/Filed)
36,000ft
Speed:
(Current/Filed)
457kts
Departed: 02-Jan-20 05:09 PM
Arrived: 02-Jan-20 07:13 PM
Distance/Time
Traveled:
695nm/2:03
Distance/Time
To Go:
Arrived

Flight Plot

Page will automatically refresh every two minutes.

Flight plan parsing failed; only flown route is shown


Map Options




Map Legend


Flown Route
Filed Route
Departure Airport
Arrival Airport
Navaid (VOR, NDB)
Fix

Horizontal Profiles

Position Reports

Time Latitude Longitude Heading Altitude Ground
Speed
02-Jan-20 16:16 37.618564 -122.391804 206 21ft 0kts
02-Jan-20 16:17 37.618564 -122.391804 206 21ft 0kts
02-Jan-20 16:18 37.618564 -122.391804 206 21ft 0kts
02-Jan-20 16:19 37.618564 -122.391804 206 21ft 0kts
02-Jan-20 16:20 37.618564 -122.391804 206 21ft 0kts
02-Jan-20 16:21 37.618564 -122.391804 206 21ft 0kts
02-Jan-20 16:22 37.618564 -122.391804 206 21ft 0kts
02-Jan-20 16:23 37.618564 -122.391804 206 21ft 0kts
02-Jan-20 16:24 37.618564 -122.391804 206 21ft 0kts
02-Jan-20 16:25 37.618564 -122.391804 206 21ft 0kts
02-Jan-20 16:26 37.618564 -122.391804 206 21ft 0kts
02-Jan-20 16:27 37.618564 -122.391804 206 21ft 0kts
02-Jan-20 16:27 37.618564 -122.391804 206 21ft 0kts
02-Jan-20 16:29 37.618564 -122.391804 206 21ft 0kts
02-Jan-20 16:29 37.618564 -122.391804 206 21ft 0kts
02-Jan-20 16:30 37.618564 -122.391804 206 21ft 0kts
02-Jan-20 16:32 37.618564 -122.391804 206 21ft 0kts
02-Jan-20 16:32 37.618564 -122.391804 206 21ft 0kts
02-Jan-20 16:33 37.618564 -122.391804 206 21ft 0kts
02-Jan-20 16:34 37.618564 -122.391804 206 21ft 0kts
02-Jan-20 16:35 37.618564 -122.391804 206 21ft 0kts
02-Jan-20 16:36 37.618564 -122.391804 206 21ft 0kts
02-Jan-20 16:37 37.618564 -122.391804 206 21ft 0kts
02-Jan-20 16:38 37.618564 -122.391804 206 21ft 0kts
02-Jan-20 16:39 37.618564 -122.391804 206 21ft 0kts
02-Jan-20 16:40 37.618564 -122.391804 206 21ft 0kts
02-Jan-20 16:41 37.618564 -122.391804 206 21ft 0kts
02-Jan-20 16:42 37.618564 -122.391804 206 21ft 0kts
02-Jan-20 16:43 37.618565 -122.391804 206 21ft 0kts
02-Jan-20 16:44 37.618565 -122.391804 206 21ft 0kts
02-Jan-20 16:45 37.618565 -122.391804 206 21ft 0kts
02-Jan-20 16:46 37.618974 -122.391554 206 21ft 2kts
02-Jan-20 16:47 37.619174 -122.391019 297 21ft 1kts
02-Jan-20 16:48 37.619330 -122.391413 298 21ft 0kts
02-Jan-20 16:49 37.619330 -122.391413 298 21ft 0kts
02-Jan-20 16:50 37.619330 -122.391413 297 21ft 0kts
02-Jan-20 16:51 37.619942 -122.392431 351 21ft 0kts
02-Jan-20 16:52 37.619942 -122.392431 351 21ft 0kts
02-Jan-20 16:53 37.619942 -122.392431 351 21ft 0kts
02-Jan-20 16:54 37.619942 -122.392431 351 21ft 0kts
02-Jan-20 16:55 37.619942 -122.392431 351 21ft 0kts
02-Jan-20 16:56 37.619942 -122.392431 351 21ft 0kts
02-Jan-20 16:57 37.619942 -122.392431 351 21ft 0kts
02-Jan-20 16:58 37.619942 -122.392431 351 21ft 0kts
02-Jan-20 16:59 37.620576 -122.392156 27 21ft 8kts
02-Jan-20 17:00 37.622248 -122.388197 118 21ft 19kts
02-Jan-20 17:01 37.619692 -122.382102 118 21ft 19kts
02-Jan-20 17:02 37.615441 -122.380425 207 21ft 17kts
02-Jan-20 17:03 37.612970 -122.382057 207 21ft 5kts
02-Jan-20 17:04 37.610278 -122.383890 213 21ft 18kts
02-Jan-20 17:05 37.606009 -122.383668 128 21ft 16kts
02-Jan-20 17:06 37.606691 -122.381405 120 21ft 11kts
02-Jan-20 17:07 37.607113 -122.380525 28 21ft 15kts
02-Jan-20 17:08 37.639875 -122.355890 46 1553ft 185kts
02-Jan-20 17:09 37.672931 -122.298389 52 3982ft 234kts
02-Jan-20 17:10 37.713055 -122.225604 41 6656ft 267kts
02-Jan-20 17:11 37.784207 -122.203426 5 9551ft 271kts
02-Jan-20 17:12 37.858410 -122.191499 5 10028ft 269kts
02-Jan-20 17:13 37.932825 -122.179344 5 10030ft 270kts
02-Jan-20 17:14 38.010721 -122.166553 4 11034ft 310kts
02-Jan-20 17:15 38.103073 -122.151251 4 12672ft 346kts
02-Jan-20 17:16 38.198657 -122.135495 3 14717ft 358kts
02-Jan-20 17:17 38.299211 -122.118853 2 16588ft 369kts
02-Jan-20 17:18 38.401924 -122.117381 352 18245ft 375kts
02-Jan-20 17:19 38.506401 -122.124537 352 19933ft 379kts
02-Jan-20 17:20 38.612533 -122.131839 351 21418ft 385kts
02-Jan-20 17:21 38.719785 -122.139239 351 22792ft 389kts
02-Jan-20 17:22 38.828483 -122.146765 351 24012ft 394kts
02-Jan-20 17:23 38.938417 -122.154377 350 25111ft 399kts
02-Jan-20 17:24 39.049633 -122.162121 350 26133ft 403kts
02-Jan-20 17:25 39.159909 -122.169822 350 27077ft 407kts
02-Jan-20 17:26 39.272756 -122.177725 350 27954ft 411kts
02-Jan-20 17:27 39.387113 -122.185754 349 28826ft 411kts
02-Jan-20 17:28 39.500546 -122.193755 349 29875ft 405kts
02-Jan-20 17:29 39.612294 -122.201669 349 30739ft 403kts
02-Jan-20 17:30 39.723822 -122.209582 349 31605ft 400kts
02-Jan-20 17:31 39.834418 -122.217447 349 32425ft 396kts
02-Jan-20 17:32 39.944221 -122.225297 349 33073ft 395kts
02-Jan-20 17:33 40.053826 -122.233149 349 33704ft 393kts
02-Jan-20 17:34 40.162110 -122.236134 351 34252ft 396kts
02-Jan-20 17:35 40.272295 -122.235747 351 34791ft 396kts
02-Jan-20 17:36 40.382041 -122.235355 351 35393ft 394kts
02-Jan-20 17:37 40.491681 -122.234953 351 35823ft 394kts
02-Jan-20 17:38 40.601321 -122.234546 351 36202ft 394kts
02-Jan-20 17:39 40.710494 -122.234119 351 36218ft 393kts
02-Jan-20 17:40 40.820258 -122.233685 351 36234ft 395kts
02-Jan-20 17:41 40.929773 -122.233303 351 36227ft 395kts
02-Jan-20 17:42 41.038519 -122.232924 350 36227ft 395kts
02-Jan-20 17:43 41.140699 -122.232521 350 36231ft 396kts
02-Jan-20 17:44 41.251240 -122.232122 350 36240ft 397kts
02-Jan-20 17:45 41.361628 -122.231691 350 36264ft 398kts
02-Jan-20 17:46 41.472066 -122.231259 350 36276ft 397kts
02-Jan-20 17:47 41.581961 -122.230859 350 36270ft 397kts
02-Jan-20 17:48 41.691944 -122.230440 350 36269ft 396kts
02-Jan-20 17:49 41.801922 -122.230028 350 36261ft 396kts
02-Jan-20 17:50 41.911541 -122.229608 350 36268ft 395kts
02-Jan-20 17:51 42.020558 -122.229189 350 36273ft 395kts
02-Jan-20 17:52 42.128023 -122.228778 350 36278ft 395kts
02-Jan-20 17:53 42.236201 -122.228359 350 36281ft 397kts
02-Jan-20 17:54 42.346430 -122.227930 350 36290ft 397kts
02-Jan-20 17:55 42.456952 -122.227495 350 36279ft 397kts
02-Jan-20 17:56 42.567307 -122.227061 349 36280ft 397kts
02-Jan-20 17:57 42.677302 -122.226628 349 36257ft 397kts
02-Jan-20 17:58 42.787391 -122.226198 349 36243ft 397kts
02-Jan-20 17:59 42.897488 -122.225767 349 36239ft 397kts
02-Jan-20 18:00 43.007536 -122.225347 349 36257ft 397kts
02-Jan-20 18:01 43.114888 -122.224921 349 36275ft 397kts
02-Jan-20 18:02 43.223821 -122.224486 349 36284ft 398kts
02-Jan-20 18:03 43.332814 -122.224046 349 36264ft 397kts
02-Jan-20 18:04 43.442682 -122.223602 349 36207ft 396kts
02-Jan-20 18:05 43.552847 -122.223155 349 36160ft 395kts
02-Jan-20 18:06 43.662499 -122.222715 349 36153ft 394kts
02-Jan-20 18:07 43.771843 -122.222266 348 36153ft 394kts
02-Jan-20 18:08 43.880831 -122.221822 349 36190ft 393kts
02-Jan-20 18:09 43.989980 -122.221376 349 36190ft 393kts
02-Jan-20 18:10 44.097399 -122.220934 349 36194ft 393kts
02-Jan-20 18:11 44.203613 -122.220498 349 36206ft 395kts
02-Jan-20 18:12 44.313361 -122.220045 348 36206ft 395kts
02-Jan-20 18:13 44.423290 -122.219586 348 36182ft 395kts
02-Jan-20 18:14 44.532023 -122.219135 348 36164ft 395kts
02-Jan-20 18:15 44.641434 -122.218674 348 36169ft 394kts
02-Jan-20 18:16 44.751406 -122.218216 348 36153ft 396kts
02-Jan-20 18:17 44.861279 -122.217752 348 36169ft 396kts
02-Jan-20 18:18 44.971597 -122.217285 348 36178ft 396kts
02-Jan-20 18:19 45.081290 -122.216818 348 36173ft 395kts
02-Jan-20 18:20 45.188992 -122.218071 347 36167ft 395kts
02-Jan-20 18:21 45.297742 -122.220416 347 36181ft 396kts
02-Jan-20 18:22 45.406807 -122.222703 347 36181ft 395kts
02-Jan-20 18:23 45.514769 -122.224972 346 36161ft 394kts
02-Jan-20 18:24 45.623121 -122.227255 347 36142ft 392kts
02-Jan-20 18:26 45.730919 -122.229535 346 36132ft 390kts
02-Jan-20 18:27 45.836860 -122.231784 346 36125ft 390kts
02-Jan-20 18:28 45.944294 -122.234072 346 36129ft 390kts
02-Jan-20 18:29 46.050601 -122.236345 346 36136ft 390kts
02-Jan-20 18:30 46.155494 -122.238593 346 36162ft 390kts
02-Jan-20 18:31 46.260409 -122.240856 346 36158ft 392kts
02-Jan-20 18:32 46.368801 -122.243200 346 36097ft 392kts
02-Jan-20 18:33 46.477472 -122.245563 346 36070ft 391kts
02-Jan-20 18:34 46.584926 -122.247907 346 36038ft 392kts
02-Jan-20 18:35 46.693644 -122.250285 346 36050ft 392kts
02-Jan-20 18:36 46.802326 -122.252674 346 36046ft 392kts
02-Jan-20 18:37 46.910499 -122.255068 345 36046ft 392kts
02-Jan-20 18:38 47.019503 -122.257478 345 36056ft 392kts
02-Jan-20 18:39 47.123096 -122.259785 345 36060ft 393kts
02-Jan-20 18:40 47.231270 -122.262196 345 36076ft 394kts
02-Jan-20 18:41 47.339665 -122.264624 345 36077ft 393kts
02-Jan-20 18:42 47.446467 -122.267028 345 36056ft 392kts
02-Jan-20 18:43 47.553750 -122.269453 345 36033ft 391kts
02-Jan-20 18:44 47.660628 -122.271879 344 36030ft 390kts
02-Jan-20 18:44 47.750195 -122.273920 344 36029ft 389kts
02-Jan-20 18:46 47.869964 -122.276662 344 35976ft 390kts
02-Jan-20 18:47 47.968980 -122.291979 336 35082ft 372kts
02-Jan-20 18:47 48.048299 -122.314876 335 33554ft 369kts
02-Jan-20 18:49 48.166866 -122.349256 336 31234ft 368kts
02-Jan-20 18:50 48.266921 -122.378403 337 28740ft 367kts
02-Jan-20 18:50 48.350171 -122.402781 337 26540ft 377kts
02-Jan-20 18:52 48.470561 -122.438133 338 23678ft 392kts
02-Jan-20 18:52 48.560850 -122.464660 339 20666ft 398kts
02-Jan-20 18:53 48.663755 -122.495044 340 16799ft 361kts
02-Jan-20 18:54 48.741409 -122.560512 305 12957ft 313kts
02-Jan-20 18:55 48.794593 -122.653118 304 12103ft 294kts
02-Jan-20 18:56 48.848253 -122.746685 304 11599ft 298kts
02-Jan-20 18:57 48.902586 -122.841675 304 11062ft 303kts
02-Jan-20 18:58 48.957443 -122.937890 305 10598ft 308kts
02-Jan-20 18:59 49.011095 -123.032440 305 10216ft 279kts
02-Jan-20 19:00 49.062166 -123.122055 305 10011ft 283kts
02-Jan-20 19:01 49.091220 -123.228565 280 8807ft 269kts
02-Jan-20 19:02 49.110251 -123.337394 282 6140ft 277kts
02-Jan-20 19:03 49.129675 -123.448393 283 4010ft 261kts
02-Jan-20 19:04 49.147863 -123.547966 302 3037ft 221kts
02-Jan-20 19:05 49.200043 -123.562232 8 3050ft 193kts
02-Jan-20 19:06 49.233705 -123.515317 85 3021ft 188kts
02-Jan-20 19:07 49.232229 -123.435989 100 2969ft 185kts
02-Jan-20 19:08 49.223597 -123.361098 99 2127ft 161kts
02-Jan-20 19:09 49.216645 -123.300994 98 1343ft 136kts
02-Jan-20 19:10 49.210158 -123.244254 98 617ft 135kts
02-Jan-20 19:11 49.203940 -123.189281 101 19ft 92kts
02-Jan-20 19:12 49.200503 -123.173784 135 16ft 21kts
02-Jan-20 19:13 49.200623 -123.179741 279 17ft 16kts
02-Jan-20 19:14 49.199905 -123.185238 190 16ft 16kts
02-Jan-20 19:15 49.197146 -123.185771 78 16ft 16kts
02-Jan-20 19:16 49.196236 -123.181817 191 19ft 7kts
02-Jan-20 19:17 49.195676 -123.182460 222 19ft 0kts
02-Jan-20 19:18 49.195676 -123.182460 222 19ft 0kts
02-Jan-20 19:19 49.195676 -123.182460 222 19ft 0kts
02-Jan-20 19:20 49.195676 -123.182460 222 19ft 0kts

Navigation Log

Ident Type
Flight plan parsing failed, navigation log unavailable